sensor_id;sensor_type;location;lat;lon;timestamp;P1;durP1;ratioP1;P2;durP2;ratioP2
57389;SDS011;43217;52.694;6.214;2024-03-25T00:01:30;16.27;;;4.03;;
57389;SDS011;43217;52.694;6.214;2024-03-25T00:03:55;13.02;;;3.47;;
57389;SDS011;43217;52.694;6.214;2024-03-25T00:06:21;15.05;;;3.53;;
57389;SDS011;43217;52.694;6.214;2024-03-25T00:08:46;15.88;;;4.15;;
57389;SDS011;43217;52.694;6.214;2024-03-25T00:11:12;15.60;;;3.92;;
57389;SDS011;43217;52.694;6.214;2024-03-25T00:13:38;20.00;;;4.20;;
57389;SDS011;43217;52.694;6.214;2024-03-25T00:16:04;16.40;;;4.20;;
57389;SDS011;43217;52.694;6.214;2024-03-25T00:18:31;17.45;;;4.22;;
57389;SDS011;43217;52.694;6.214;2024-03-25T00:20:57;19.00;;;3.92;;
57389;SDS011;43217;52.694;6.214;2024-03-25T00:23:23;15.85;;;3.70;;
57389;SDS011;43217;52.694;6.214;2024-03-25T00:25:49;14.02;;;4.25;;
57389;SDS011;43217;52.694;6.214;2024-03-25T00:28:15;14.13;;;3.28;;
57389;SDS011;43217;52.694;6.214;2024-03-25T00:30:40;22.92;;;8.82;;
57389;SDS011;43217;52.694;6.214;2024-03-25T00:33:06;14.90;;;4.63;;
57389;SDS011;43217;52.694;6.214;2024-03-25T00:35:32;16.42;;;4.15;;
57389;SDS011;43217;52.694;6.214;2024-03-25T00:37:58;12.68;;;4.50;;
57389;SDS011;43217;52.694;6.214;2024-03-25T00:40:24;18.52;;;3.88;;
57389;SDS011;43217;52.694;6.214;2024-03-25T00:42:50;15.70;;;3.22;;
57389;SDS011;43217;52.694;6.214;2024-03-25T00:45:15;16.05;;;4.03;;
57389;SDS011;43217;52.694;6.214;2024-03-25T00:47:41;19.27;;;4.70;;
57389;SDS011;43217;52.694;6.214;2024-03-25T00:50:07;13.88;;;3.50;;
57389;SDS011;43217;52.694;6.214;2024-03-25T00:52:34;19.07;;;4.43;;
57389;SDS011;43217;52.694;6.214;2024-03-25T00:55:00;12.25;;;3.78;;
57389;SDS011;43217;52.694;6.214;2024-03-25T00:57:26;15.35;;;3.42;;
57389;SDS011;43217;52.694;6.214;2024-03-25T00:59:51;20.42;;;4.72;;
57389;SDS011;43217;52.694;6.214;2024-03-25T01:02:17;15.13;;;3.75;;
57389;SDS011;43217;52.694;6.214;2024-03-25T01:04:42;19.30;;;4.25;;
57389;SDS011;43217;52.694;6.214;2024-03-25T01:07:08;18.83;;;4.05;;
57389;SDS011;43217;52.694;6.214;2024-03-25T01:09:34;16.23;;;4.35;;
57389;SDS011;43217;52.694;6.214;2024-03-25T01:12:00;13.13;;;3.70;;
57389;SDS011;43217;52.694;6.214;2024-03-25T01:14:25;15.75;;;3.72;;
57389;SDS011;43217;52.694;6.214;2024-03-25T01:16:51;16.77;;;3.80;;
57389;SDS011;43217;52.694;6.214;2024-03-25T01:19:17;17.55;;;4.43;;
57389;SDS011;43217;52.694;6.214;2024-03-25T01:21:43;14.80;;;3.60;;
57389;SDS011;43217;52.694;6.214;2024-03-25T01:24:09;16.08;;;4.07;;
57389;SDS011;43217;52.694;6.214;2024-03-25T01:26:35;16.17;;;3.78;;
57389;SDS011;43217;52.694;6.214;2024-03-25T01:29:01;20.52;;;4.95;;
57389;SDS011;43217;52.694;6.214;2024-03-25T01:31:27;16.33;;;3.92;;
57389;SDS011;43217;52.694;6.214;2024-03-25T01:33:52;16.50;;;3.80;;
57389;SDS011;43217;52.694;6.214;2024-03-25T01:36:18;17.15;;;4.00;;
57389;SDS011;43217;52.694;6.214;2024-03-25T01:38:44;21.67;;;5.22;;
57389;SDS011;43217;52.694;6.214;2024-03-25T01:41:10;14.15;;;4.20;;
57389;SDS011;43217;52.694;6.214;2024-03-25T01:43:37;19.30;;;4.45;;
57389;SDS011;43217;52.694;6.214;2024-03-25T01:46:03;15.65;;;4.13;;
57389;SDS011;43217;52.694;6.214;2024-03-25T01:48:30;20.70;;;4.75;;
57389;SDS011;43217;52.694;6.214;2024-03-25T01:50:56;15.73;;;3.80;;
57389;SDS011;43217;52.694;6.214;2024-03-25T01:53:23;16.92;;;3.47;;
57389;SDS011;43217;52.694;6.214;2024-03-25T01:55:50;21.42;;;4.38;;
57389;SDS011;43217;52.694;6.214;2024-03-25T01:58:20;16.40;;;4.18;;
57389;SDS011;43217;52.694;6.214;2024-03-25T02:00:46;15.70;;;3.63;;
57389;SDS011;43217;52.694;6.214;2024-03-25T02:03:12;18.10;;;4.55;;
57389;SDS011;43217;52.694;6.214;2024-03-25T02:05:38;14.65;;;3.60;;
57389;SDS011;43217;52.694;6.214;2024-03-25T02:08:04;17.02;;;4.25;;
57389;SDS011;43217;52.694;6.214;2024-03-25T02:10:31;23.75;;;4.25;;
57389;SDS011;43217;52.694;6.214;2024-03-25T02:12:57;14.35;;;3.28;;
57389;SDS011;43217;52.694;6.214;2024-03-25T02:15:23;11.77;;;3.25;;
57389;SDS011;43217;52.694;6.214;2024-03-25T02:17:51;15.23;;;3.50;;
57389;SDS011;43217;52.694;6.214;2024-03-25T02:20:17;16.65;;;4.15;;
57389;SDS011;43217;52.694;6.214;2024-03-25T02:22:42;18.40;;;4.07;;
57389;SDS011;43217;52.694;6.214;2024-03-25T02:25:09;19.10;;;4.50;;
57389;SDS011;43217;52.694;6.214;2024-03-25T02:27:38;23.45;;;4.85;;
57389;SDS011;43217;52.694;6.214;2024-03-25T02:32:35;20.15;;;4.85;;
57389;SDS011;43217;52.694;6.214;2024-03-25T02:35:09;16.75;;;3.67;;
57389;SDS011;43217;52.694;6.214;2024-03-25T02:37:37;17.52;;;3.85;;
57389;SDS011;43217;52.694;6.214;2024-03-25T02:40:04;18.50;;;3.95;;
57389;SDS011;43217;52.694;6.214;2024-03-25T02:42:34;14.10;;;4.53;;
57389;SDS011;43217;52.694;6.214;2024-03-25T02:45:00;14.25;;;4.07;;
57389;SDS011;43217;52.694;6.214;2024-03-25T02:47:27;17.42;;;4.72;;
57389;SDS011;43217;52.694;6.214;2024-03-25T02:49:52;16.67;;;3.80;;
57389;SDS011;43217;52.694;6.214;2024-03-25T02:52:19;15.70;;;3.83;;
57389;SDS011;43217;52.694;6.214;2024-03-25T02:54:45;14.73;;;4.50;;
57389;SDS011;43217;52.694;6.214;2024-03-25T02:57:11;16.80;;;5.28;;
57389;SDS011;43217;52.694;6.214;2024-03-25T02:59:36;14.98;;;3.80;;
57389;SDS011;43217;52.694;6.214;2024-03-25T03:02:02;18.95;;;4.45;;
57389;SDS011;43217;52.694;6.214;2024-03-25T03:04:27;20.08;;;3.60;;
57389;SDS011;43217;52.694;6.214;2024-03-25T03:06:53;14.45;;;3.88;;
57389;SDS011;43217;52.694;6.214;2024-03-25T03:09:19;14.75;;;4.07;;
57389;SDS011;43217;52.694;6.214;2024-03-25T03:11:44;14.52;;;3.40;;
57389;SDS011;43217;52.694;6.214;2024-03-25T03:14:10;14.43;;;3.88;;
57389;SDS011;43217;52.694;6.214;2024-03-25T03:16:36;15.57;;;3.88;;
57389;SDS011;43217;52.694;6.214;2024-03-25T03:19:01;12.98;;;4.30;;
57389;SDS011;43217;52.694;6.214;2024-03-25T03:21:27;10.68;;;3.38;;
57389;SDS011;43217;52.694;6.214;2024-03-25T03:23:53;15.45;;;3.65;;
57389;SDS011;43217;52.694;6.214;2024-03-25T03:26:18;12.68;;;3.45;;
57389;SDS011;43217;52.694;6.214;2024-03-25T03:28:44;12.73;;;3.38;;
57389;SDS011;43217;52.694;6.214;2024-03-25T03:31:09;11.23;;;3.08;;
57389;SDS011;43217;52.694;6.214;2024-03-25T03:33:35;15.02;;;3.28;;
57389;SDS011;43217;52.694;6.214;2024-03-25T03:36:01;13.13;;;3.15;;
57389;SDS011;43217;52.694;6.214;2024-03-25T03:38:26;14.15;;;3.50;;
57389;SDS011;43217;52.694;6.214;2024-03-25T03:40:56;16.48;;;3.45;;
57389;SDS011;43217;52.694;6.214;2024-03-25T03:43:25;14.80;;;2.95;;
57389;SDS011;43217;52.694;6.214;2024-03-25T03:45:51;15.88;;;3.40;;
57389;SDS011;43217;52.694;6.214;2024-03-25T03:48:17;13.93;;;3.40;;
57389;SDS011;43217;52.694;6.214;2024-03-25T03:50:43;20.25;;;3.60;;
57389;SDS011;43217;52.694;6.214;2024-03-25T03:53:08;13.32;;;2.88;;
57389;SDS011;43217;52.694;6.214;2024-03-25T03:55:34;13.80;;;3.10;;
57389;SDS011;43217;52.694;6.214;2024-03-25T03:58:00;16.80;;;3.97;;
57389;SDS011;43217;52.694;6.214;2024-03-25T04:00:26;13.13;;;3.45;;
57389;SDS011;43217;52.694;6.214;2024-03-25T04:02:52;14.48;;;3.65;;
57389;SDS011;43217;52.694;6.214;2024-03-25T04:05:18;14.75;;;3.75;;
57389;SDS011;43217;52.694;6.214;2024-03-25T04:07:44;8.95;;;3.10;;
57389;SDS011;43217;52.694;6.214;2024-03-25T04:10:10;12.77;;;3.28;;
57389;SDS011;43217;52.694;6.214;2024-03-25T04:12:35;13.43;;;4.10;;
57389;SDS011;43217;52.694;6.214;2024-03-25T04:15:02;10.80;;;2.97;;
57389;SDS011;43217;52.694;6.214;2024-03-25T04:17:28;12.70;;;3.70;;
57389;SDS011;43217;52.694;6.214;2024-03-25T04:19:54;12.73;;;3.72;;
57389;SDS011;43217;52.694;6.214;2024-03-25T04:22:19;11.15;;;3.17;;
57389;SDS011;43217;52.694;6.214;2024-03-25T04:24:45;15.23;;;4.75;;
57389;SDS011;43217;52.694;6.214;2024-03-25T04:27:11;18.67;;;6.72;;
57389;SDS011;43217;52.694;6.214;2024-03-25T04:29:37;15.55;;;5.32;;
57389;SDS011;43217;52.694;6.214;2024-03-25T04:32:02;19.20;;;5.32;;
57389;SDS011;43217;52.694;6.214;2024-03-25T04:34:29;18.40;;;4.55;;
57389;SDS011;43217;52.694;6.214;2024-03-25T04:36:55;16.92;;;5.38;;
57389;SDS011;43217;52.694;6.214;2024-03-25T04:39:21;15.07;;;7.70;;
57389;SDS011;43217;52.694;6.214;2024-03-25T04:41:47;15.23;;;5.15;;
57389;SDS011;43217;52.694;6.214;2024-03-25T04:44:12;18.83;;;4.35;;
57389;SDS011;43217;52.694;6.214;2024-03-25T04:46:39;15.93;;;3.60;;
57389;SDS011;43217;52.694;6.214;2024-03-25T04:49:04;12.70;;;4.00;;
57389;SDS011;43217;52.694;6.214;2024-03-25T04:51:30;14.77;;;4.03;;
57389;SDS011;43217;52.694;6.214;2024-03-25T04:53:56;16.05;;;3.95;;
57389;SDS011;43217;52.694;6.214;2024-03-25T04:56:22;14.60;;;4.25;;
57389;SDS011;43217;52.694;6.214;2024-03-25T04:58:48;16.52;;;3.80;;
57389;SDS011;43217;52.694;6.214;2024-03-25T05:01:13;15.63;;;3.45;;
57389;SDS011;43217;52.694;6.214;2024-03-25T05:03:39;17.45;;;4.05;;
57389;SDS011;43217;52.694;6.214;2024-03-25T05:06:04;11.63;;;3.00;;
57389;SDS011;43217;52.694;6.214;2024-03-25T05:08:30;15.00;;;4.20;;
57389;SDS011;43217;52.694;6.214;2024-03-25T05:10:56;12.13;;;3.92;;
57389;SDS011;43217;52.694;6.214;2024-03-25T05:13:21;12.65;;;3.60;;
57389;SDS011;43217;52.694;6.214;2024-03-25T05:15:50;13.45;;;2.97;;
57389;SDS011;43217;52.694;6.214;2024-03-25T05:18:17;13.75;;;3.00;;
57389;SDS011;43217;52.694;6.214;2024-03-25T05:20:43;13.77;;;2.78;;
57389;SDS011;43217;52.694;6.214;2024-03-25T05:23:09;14.57;;;3.30;;
57389;SDS011;43217;52.694;6.214;2024-03-25T05:25:35;14.57;;;2.80;;
57389;SDS011;43217;52.694;6.214;2024-03-25T05:28:01;10.85;;;2.90;;
57389;SDS011;43217;52.694;6.214;2024-03-25T05:30:27;10.52;;;2.78;;
57389;SDS011;43217;52.694;6.214;2024-03-25T05:32:52;13.65;;;3.20;;
57389;SDS011;43217;52.694;6.214;2024-03-25T05:35:18;11.27;;;2.60;;
57389;SDS011;43217;52.694;6.214;2024-03-25T05:37:43;10.88;;;3.20;;
57389;SDS011;43217;52.694;6.214;2024-03-25T05:40:09;12.70;;;2.83;;
57389;SDS011;43217;52.694;6.214;2024-03-25T05:42:38;9.82;;;2.65;;
57389;SDS011;43217;52.694;6.214;2024-03-25T05:45:04;13.75;;;3.67;;
57389;SDS011;43217;52.694;6.214;2024-03-25T05:47:30;10.55;;;3.20;;
57389;SDS011;43217;52.694;6.214;2024-03-25T05:49:56;8.93;;;2.30;;
57389;SDS011;43217;52.694;6.214;2024-03-25T05:52:21;9.40;;;3.05;;
57389;SDS011;43217;52.694;6.214;2024-03-25T05:54:47;9.68;;;2.67;;
57389;SDS011;43217;52.694;6.214;2024-03-25T05:57:12;8.45;;;2.50;;
57389;SDS011;43217;52.694;6.214;2024-03-25T05:59:38;12.20;;;3.47;;
57389;SDS011;43217;52.694;6.214;2024-03-25T06:02:03;10.43;;;3.45;;
57389;SDS011;43217;52.694;6.214;2024-03-25T06:04:29;10.85;;;4.07;;
57389;SDS011;43217;52.694;6.214;2024-03-25T06:06:55;9.35;;;3.38;;
57389;SDS011;43217;52.694;6.214;2024-03-25T06:09:21;8.95;;;3.60;;
57389;SDS011;43217;52.694;6.214;2024-03-25T06:11:46;10.93;;;3.92;;
57389;SDS011;43217;52.694;6.214;2024-03-25T06:14:12;9.13;;;2.97;;
57389;SDS011;43217;52.694;6.214;2024-03-25T06:16:37;11.55;;;3.10;;
57389;SDS011;43217;52.694;6.214;2024-03-25T06:19:03;7.60;;;2.47;;
57389;SDS011;43217;52.694;6.214;2024-03-25T06:21:28;7.55;;;3.45;;
57389;SDS011;43217;52.694;6.214;2024-03-25T06:23:54;10.10;;;2.90;;
57389;SDS011;43217;52.694;6.214;2024-03-25T06:26:20;10.65;;;2.90;;
57389;SDS011;43217;52.694;6.214;2024-03-25T06:28:46;9.73;;;2.78;;
57389;SDS011;43217;52.694;6.214;2024-03-25T06:31:12;9.07;;;2.92;;
57389;SDS011;43217;52.694;6.214;2024-03-25T06:33:56;11.68;;;2.88;;
57389;SDS011;43217;52.694;6.214;2024-03-25T06:36:42;6.78;;;2.85;;
57389;SDS011;43217;52.694;6.214;2024-03-25T06:39:09;12.05;;;3.30;;
57389;SDS011;43217;52.694;6.214;2024-03-25T06:41:35;11.95;;;2.97;;
57389;SDS011;43217;52.694;6.214;2024-03-25T06:44:01;28.15;;;12.23;;
57389;SDS011;43217;52.694;6.214;2024-03-25T06:46:26;23.27;;;10.15;;
57389;SDS011;43217;52.694;6.214;2024-03-25T06:48:52;14.38;;;6.60;;
57389;SDS011;43217;52.694;6.214;2024-03-25T06:51:18;11.90;;;4.85;;
57389;SDS011;43217;52.694;6.214;2024-03-25T06:53:44;12.77;;;3.30;;
57389;SDS011;43217;52.694;6.214;2024-03-25T06:56:09;14.00;;;3.85;;
57389;SDS011;43217;52.694;6.214;2024-03-25T06:58:35;8.98;;;3.15;;
57389;SDS011;43217;52.694;6.214;2024-03-25T07:01:05;10.05;;;2.92;;
57389;SDS011;43217;52.694;6.214;2024-03-25T07:03:34;13.20;;;3.92;;
57389;SDS011;43217;52.694;6.214;2024-03-25T07:06:00;8.55;;;2.92;;
57389;SDS011;43217;52.694;6.214;2024-03-25T07:08:27;12.85;;;3.67;;
57389;SDS011;43217;52.694;6.214;2024-03-25T07:10:55;12.57;;;2.72;;
57389;SDS011;43217;52.694;6.214;2024-03-25T07:13:21;12.73;;;3.10;;
57389;SDS011;43217;52.694;6.214;2024-03-25T07:15:46;10.60;;;2.97;;
57389;SDS011;43217;52.694;6.214;2024-03-25T07:18:12;14.80;;;2.92;;
57389;SDS011;43217;52.694;6.214;2024-03-25T07:20:43;12.00;;;2.88;;
57389;SDS011;43217;52.694;6.214;2024-03-25T07:23:09;9.98;;;3.35;;
57389;SDS011;43217;52.694;6.214;2024-03-25T07:25:35;12.52;;;4.07;;
57389;SDS011;43217;52.694;6.214;2024-03-25T07:28:02;9.23;;;2.83;;
57389;SDS011;43217;52.694;6.214;2024-03-25T07:30:28;17.52;;;4.38;;
57389;SDS011;43217;52.694;6.214;2024-03-25T07:32:57;14.68;;;3.85;;
57389;SDS011;43217;52.694;6.214;2024-03-25T07:35:24;13.60;;;3.50;;
57389;SDS011;43217;52.694;6.214;2024-03-25T07:37:49;8.38;;;2.72;;
57389;SDS011;43217;52.694;6.214;2024-03-25T07:40:16;8.98;;;3.20;;
57389;SDS011;43217;52.694;6.214;2024-03-25T07:42:46;11.60;;;2.90;;
57389;SDS011;43217;52.694;6.214;2024-03-25T07:45:11;11.70;;;3.72;;
57389;SDS011;43217;52.694;6.214;2024-03-25T07:47:37;14.45;;;3.15;;
57389;SDS011;43217;52.694;6.214;2024-03-25T07:50:03;13.77;;;3.33;;
57389;SDS011;43217;52.694;6.214;2024-03-25T07:52:30;9.45;;;2.70;;
57389;SDS011;43217;52.694;6.214;2024-03-25T07:54:56;12.40;;;2.92;;
57389;SDS011;43217;52.694;6.214;2024-03-25T07:57:22;12.27;;;3.60;;
57389;SDS011;43217;52.694;6.214;2024-03-25T07:59:48;10.00;;;3.00;;
57389;SDS011;43217;52.694;6.214;2024-03-25T08:02:14;12.05;;;3.35;;
57389;SDS011;43217;52.694;6.214;2024-03-25T08:04:40;14.32;;;3.40;;
57389;SDS011;43217;52.694;6.214;2024-03-25T08:07:05;14.18;;;3.60;;
57389;SDS011;43217;52.694;6.214;2024-03-25T08:09:32;10.13;;;3.05;;
57389;SDS011;43217;52.694;6.214;2024-03-25T08:11:57;12.60;;;2.85;;
57389;SDS011;43217;52.694;6.214;2024-03-25T08:14:23;10.55;;;2.97;;
57389;SDS011;43217;52.694;6.214;2024-03-25T08:16:49;12.85;;;3.38;;
57389;SDS011;43217;52.694;6.214;2024-03-25T08:19:15;10.30;;;3.83;;
57389;SDS011;43217;52.694;6.214;2024-03-25T08:21:40;11.60;;;3.60;;
57389;SDS011;43217;52.694;6.214;2024-03-25T08:24:06;12.02;;;3.50;;
57389;SDS011;43217;52.694;6.214;2024-03-25T08:26:32;13.40;;;3.20;;
57389;SDS011;43217;52.694;6.214;2024-03-25T08:28:57;14.77;;;4.32;;
57389;SDS011;43217;52.694;6.214;2024-03-25T08:31:23;10.27;;;3.47;;
57389;SDS011;43217;52.694;6.214;2024-03-25T08:33:49;14.65;;;3.90;;
57389;SDS011;43217;52.694;6.214;2024-03-25T08:36:15;9.60;;;3.35;;
57389;SDS011;43217;52.694;6.214;2024-03-25T08:38:41;11.98;;;3.17;;
57389;SDS011;43217;52.694;6.214;2024-03-25T08:41:06;12.55;;;4.07;;
57389;SDS011;43217;52.694;6.214;2024-03-25T08:43:32;12.20;;;2.90;;
57389;SDS011;43217;52.694;6.214;2024-03-25T08:45:58;10.93;;;3.25;;
57389;SDS011;43217;52.694;6.214;2024-03-25T08:48:23;10.50;;;3.25;;
57389;SDS011;43217;52.694;6.214;2024-03-25T08:50:49;12.30;;;3.05;;
57389;SDS011;43217;52.694;6.214;2024-03-25T08:53:15;9.52;;;2.80;;
57389;SDS011;43217;52.694;6.214;2024-03-25T08:55:47;9.30;;;2.80;;
57389;SDS011;43217;52.694;6.214;2024-03-25T08:58:14;12.00;;;3.70;;
57389;SDS011;43217;52.694;6.214;2024-03-25T09:00:40;11.85;;;3.80;;
57389;SDS011;43217;52.694;6.214;2024-03-25T09:03:07;10.45;;;2.83;;
57389;SDS011;43217;52.694;6.214;2024-03-25T09:05:33;9.38;;;3.20;;
57389;SDS011;43217;52.694;6.214;2024-03-25T09:07:59;11.05;;;3.10;;
57389;SDS011;43217;52.694;6.214;2024-03-25T09:10:25;11.30;;;3.75;;
57389;SDS011;43217;52.694;6.214;2024-03-25T09:13:10;11.70;;;3.00;;
57389;SDS011;43217;52.694;6.214;2024-03-25T09:15:35;9.80;;;2.72;;
57389;SDS011;43217;52.694;6.214;2024-03-25T09:18:01;11.27;;;2.50;;
57389;SDS011;43217;52.694;6.214;2024-03-25T09:20:27;10.73;;;2.92;;
57389;SDS011;43217;52.694;6.214;2024-03-25T09:22:53;8.15;;;2.25;;
57389;SDS011;43217;52.694;6.214;2024-03-25T09:25:19;9.55;;;2.40;;
57389;SDS011;43217;52.694;6.214;2024-03-25T09:27:48;9.82;;;2.55;;
57389;SDS011;43217;52.694;6.214;2024-03-25T09:30:14;7.25;;;2.63;;
57389;SDS011;43217;52.694;6.214;2024-03-25T09:32:40;8.95;;;2.22;;
57389;SDS011;43217;52.694;6.214;2024-03-25T09:35:07;11.73;;;2.30;;
57389;SDS011;43217;52.694;6.214;2024-03-25T09:37:33;7.32;;;1.92;;
57389;SDS011;43217;52.694;6.214;2024-03-25T09:39:59;7.45;;;1.90;;
57389;SDS011;43217;52.694;6.214;2024-03-25T09:42:25;11.18;;;2.35;;
57389;SDS011;43217;52.694;6.214;2024-03-25T09:44:55;7.22;;;2.30;;
57389;SDS011;43217;52.694;6.214;2024-03-25T09:47:21;8.80;;;2.15;;
57389;SDS011;43217;52.694;6.214;2024-03-25T09:49:47;9.35;;;2.60;;
57389;SDS011;43217;52.694;6.214;2024-03-25T09:52:14;7.10;;;2.25;;
57389;SDS011;43217;52.694;6.214;2024-03-25T09:54:40;6.50;;;2.00;;
57389;SDS011;43217;52.694;6.214;2024-03-25T09:57:06;9.07;;;2.35;;
57389;SDS011;43217;52.694;6.214;2024-03-25T09:59:33;8.32;;;2.35;;
57389;SDS011;43217;52.694;6.214;2024-03-25T10:01:58;7.10;;;2.28;;
57389;SDS011;43217;52.694;6.214;2024-03-25T10:04:25;8.38;;;2.17;;
57389;SDS011;43217;52.694;6.214;2024-03-25T10:06:51;8.88;;;2.20;;
57389;SDS011;43217;52.694;6.214;2024-03-25T10:09:20;8.98;;;2.33;;
57389;SDS011;43217;52.694;6.214;2024-03-25T10:11:49;7.30;;;2.83;;
57389;SDS011;43217;52.694;6.214;2024-03-25T10:14:18;6.38;;;1.98;;
57389;SDS011;43217;52.694;6.214;2024-03-25T10:16:48;12.13;;;3.55;;
57389;SDS011;43217;52.694;6.214;2024-03-25T10:19:16;9.13;;;2.53;;
57389;SDS011;43217;52.694;6.214;2024-03-25T10:21:42;7.53;;;2.10;;
57389;SDS011;43217;52.694;6.214;2024-03-25T10:24:07;10.52;;;2.42;;
57389;SDS011;43217;52.694;6.214;2024-03-25T10:26:33;10.27;;;2.38;;
57389;SDS011;43217;52.694;6.214;2024-03-25T10:29:06;8.20;;;2.00;;
57389;SDS011;43217;52.694;6.214;2024-03-25T10:31:32;8.10;;;2.28;;
57389;SDS011;43217;52.694;6.214;2024-03-25T10:33:58;8.45;;;2.28;;
57389;SDS011;43217;52.694;6.214;2024-03-25T10:36:24;8.27;;;2.55;;
57389;SDS011;43217;52.694;6.214;2024-03-25T10:38:57;9.13;;;2.03;;
57389;SDS011;43217;52.694;6.214;2024-03-25T10:41:27;10.55;;;2.88;;
57389;SDS011;43217;52.694;6.214;2024-03-25T10:43:54;7.47;;;2.90;;
57389;SDS011;43217;52.694;6.214;2024-03-25T10:46:22;6.68;;;1.98;;
57389;SDS011;43217;52.694;6.214;2024-03-25T10:49:25;6.75;;;1.92;;
57389;SDS011;43217;52.694;6.214;2024-03-25T10:51:48;6.35;;;1.90;;
57389;SDS011;43217;52.694;6.214;2024-03-25T10:54:15;4.82;;;2.60;;
57389;SDS011;43217;52.694;6.214;2024-03-25T10:56:42;8.48;;;2.42;;
57389;SDS011;43217;52.694;6.214;2024-03-25T10:59:09;8.57;;;2.38;;
57389;SDS011;43217;52.694;6.214;2024-03-25T11:01:36;9.68;;;2.67;;
57389;SDS011;43217;52.694;6.214;2024-03-25T11:04:03;8.20;;;2.53;;
57389;SDS011;43217;52.694;6.214;2024-03-25T11:06:31;8.85;;;2.60;;
57389;SDS011;43217;52.694;6.214;2024-03-25T11:08:57;8.47;;;2.40;;
57389;SDS011;43217;52.694;6.214;2024-03-25T11:11:24;10.85;;;3.00;;
57389;SDS011;43217;52.694;6.214;2024-03-25T11:13:56;5.65;;;2.33;;
57389;SDS011;43217;52.694;6.214;2024-03-25T11:16:31;6.28;;;2.35;;
57389;SDS011;43217;52.694;6.214;2024-03-25T11:19:04;7.57;;;2.30;;
57389;SDS011;43217;52.694;6.214;2024-03-25T11:21:31;6.40;;;2.45;;
57389;SDS011;43217;52.694;6.214;2024-03-25T11:24:05;8.52;;;2.22;;
57389;SDS011;43217;52.694;6.214;2024-03-25T11:26:31;10.32;;;2.60;;
57389;SDS011;43217;52.694;6.214;2024-03-25T11:29:00;9.23;;;2.50;;
57389;SDS011;43217;52.694;6.214;2024-03-25T11:31:26;7.53;;;2.38;;
57389;SDS011;43217;52.694;6.214;2024-03-25T11:33:52;7.40;;;2.40;;
57389;SDS011;43217;52.694;6.214;2024-03-25T11:36:18;7.82;;;2.08;;
57389;SDS011;43217;52.694;6.214;2024-03-25T11:38:45;9.82;;;1.88;;
57389;SDS011;43217;52.694;6.214;2024-03-25T11:41:11;7.57;;;2.03;;
57389;SDS011;43217;52.694;6.214;2024-03-25T11:43:37;7.20;;;2.20;;
57389;SDS011;43217;52.694;6.214;2024-03-25T11:46:03;5.85;;;1.80;;
57389;SDS011;43217;52.694;6.214;2024-03-25T11:48:29;9.23;;;2.63;;
57389;SDS011;43217;52.694;6.214;2024-03-25T11:50:55;5.20;;;1.70;;
57389;SDS011;43217;52.694;6.214;2024-03-25T11:53:20;6.35;;;2.10;;
57389;SDS011;43217;52.694;6.214;2024-03-25T11:55:46;4.85;;;1.77;;
57389;SDS011;43217;52.694;6.214;2024-03-25T11:58:13;7.63;;;2.23;;
57389;SDS011;43217;52.694;6.214;2024-03-25T12:00:43;9.80;;;2.67;;
57389;SDS011;43217;52.694;6.214;2024-03-25T12:03:14;5.32;;;1.80;;
57389;SDS011;43217;52.694;6.214;2024-03-25T12:05:44;6.35;;;2.28;;
57389;SDS011;43217;52.694;6.214;2024-03-25T12:08:09;4.63;;;1.80;;
57389;SDS011;43217;52.694;6.214;2024-03-25T12:10:37;6.25;;;2.08;;
57389;SDS011;43217;52.694;6.214;2024-03-25T12:13:21;7.07;;;1.95;;
57389;SDS011;43217;52.694;6.214;2024-03-25T12:15:48;6.72;;;2.00;;
57389;SDS011;43217;52.694;6.214;2024-03-25T12:18:14;10.05;;;2.28;;
57389;SDS011;43217;52.694;6.214;2024-03-25T12:20:40;7.30;;;2.38;;
57389;SDS011;43217;52.694;6.214;2024-03-25T12:23:06;5.57;;;1.77;;
57389;SDS011;43217;52.694;6.214;2024-03-25T12:25:32;5.55;;;1.48;;
57389;SDS011;43217;52.694;6.214;2024-03-25T12:27:58;5.30;;;1.67;;
57389;SDS011;43217;52.694;6.214;2024-03-25T12:30:23;6.10;;;1.80;;
57389;SDS011;43217;52.694;6.214;2024-03-25T12:32:50;5.40;;;1.70;;
57389;SDS011;43217;52.694;6.214;2024-03-25T12:35:16;6.32;;;1.90;;
57389;SDS011;43217;52.694;6.214;2024-03-25T12:37:43;4.60;;;1.83;;
57389;SDS011;43217;52.694;6.214;2024-03-25T12:40:11;6.30;;;1.55;;
57389;SDS011;43217;52.694;6.214;2024-03-25T12:42:39;7.10;;;1.60;;
57389;SDS011;43217;52.694;6.214;2024-03-25T12:45:05;4.85;;;1.40;;
57389;SDS011;43217;52.694;6.214;2024-03-25T12:47:32;5.03;;;1.60;;
57389;SDS011;43217;52.694;6.214;2024-03-25T12:49:58;6.55;;;1.75;;
57389;SDS011;43217;52.694;6.214;2024-03-25T12:52:24;5.68;;;1.83;;
57389;SDS011;43217;52.694;6.214;2024-03-25T12:54:50;4.68;;;1.70;;
57389;SDS011;43217;52.694;6.214;2024-03-25T12:57:15;5.53;;;1.92;;
57389;SDS011;43217;52.694;6.214;2024-03-25T12:59:41;6.47;;;2.35;;
57389;SDS011;43217;52.694;6.214;2024-03-25T13:02:10;5.50;;;2.00;;
57389;SDS011;43217;52.694;6.214;2024-03-25T13:04:40;7.70;;;1.95;;
57389;SDS011;43217;52.694;6.214;2024-03-25T13:07:07;5.93;;;2.15;;
57389;SDS011;43217;52.694;6.214;2024-03-25T13:09:33;7.80;;;2.08;;
57389;SDS011;43217;52.694;6.214;2024-03-25T13:12:02;4.18;;;1.92;;
57389;SDS011;43217;52.694;6.214;2024-03-25T13:14:29;7.70;;;2.17;;
57389;SDS011;43217;52.694;6.214;2024-03-25T13:16:54;4.20;;;2.00;;
57389;SDS011;43217;52.694;6.214;2024-03-25T13:19:20;10.10;;;2.00;;
57389;SDS011;43217;52.694;6.214;2024-03-25T13:21:46;4.55;;;1.55;;
57389;SDS011;43217;52.694;6.214;2024-03-25T13:24:13;6.00;;;1.60;;
57389;SDS011;43217;52.694;6.214;2024-03-25T13:26:39;5.40;;;1.60;;
57389;SDS011;43217;52.694;6.214;2024-03-25T13:29:04;6.47;;;1.50;;
57389;SDS011;43217;52.694;6.214;2024-03-25T13:31:32;3.65;;;1.50;;
57389;SDS011;43217;52.694;6.214;2024-03-25T13:33:58;7.25;;;2.03;;
57389;SDS011;43217;52.694;6.214;2024-03-25T13:36:23;5.97;;;1.70;;
57389;SDS011;43217;52.694;6.214;2024-03-25T13:38:49;5.18;;;1.70;;
57389;SDS011;43217;52.694;6.214;2024-03-25T13:41:15;6.85;;;2.08;;
57389;SDS011;43217;52.694;6.214;2024-03-25T13:43:43;6.20;;;2.03;;
57389;SDS011;43217;52.694;6.214;2024-03-25T13:46:09;5.60;;;1.70;;
57389;SDS011;43217;52.694;6.214;2024-03-25T13:48:37;4.88;;;1.88;;
57389;SDS011;43217;52.694;6.214;2024-03-25T13:51:02;6.82;;;1.85;;
57389;SDS011;43217;52.694;6.214;2024-03-25T13:53:28;4.28;;;1.50;;
57389;SDS011;43217;52.694;6.214;2024-03-25T13:55:54;6.35;;;1.63;;
57389;SDS011;43217;52.694;6.214;2024-03-25T13:58:19;6.35;;;1.70;;
57389;SDS011;43217;52.694;6.214;2024-03-25T14:00:45;6.72;;;1.88;;
57389;SDS011;43217;52.694;6.214;2024-03-25T14:03:11;5.28;;;1.63;;
57389;SDS011;43217;52.694;6.214;2024-03-25T14:05:37;5.72;;;1.50;;
57389;SDS011;43217;52.694;6.214;2024-03-25T14:08:02;4.90;;;1.38;;
57389;SDS011;43217;52.694;6.214;2024-03-25T14:10:28;4.05;;;1.40;;
57389;SDS011;43217;52.694;6.214;2024-03-25T14:12:55;6.15;;;1.50;;
57389;SDS011;43217;52.694;6.214;2024-03-25T14:15:20;6.68;;;2.05;;
57389;SDS011;43217;52.694;6.214;2024-03-25T14:17:46;4.20;;;1.42;;
57389;SDS011;43217;52.694;6.214;2024-03-25T14:20:11;4.20;;;1.60;;
57389;SDS011;43217;52.694;6.214;2024-03-25T14:22:37;4.47;;;1.50;;
57389;SDS011;43217;52.694;6.214;2024-03-25T14:25:03;3.63;;;1.50;;
57389;SDS011;43217;52.694;6.214;2024-03-25T14:27:29;5.82;;;1.70;;
57389;SDS011;43217;52.694;6.214;2024-03-25T14:29:54;6.57;;;1.77;;
57389;SDS011;43217;52.694;6.214;2024-03-25T14:32:20;3.80;;;1.60;;
57389;SDS011;43217;52.694;6.214;2024-03-25T14:34:47;3.70;;;1.30;;
57389;SDS011;43217;52.694;6.214;2024-03-25T14:37:13;3.22;;;1.58;;
57389;SDS011;43217;52.694;6.214;2024-03-25T14:39:39;5.68;;;1.75;;